Detall de PIREP

Printer-friendly versionPDF version

[2012/04/28 16:42:00]
Flight IATA:CT1005
Pilot Number:037
Company ICAO:CAT
Aircraft Type:B752/E
PAX:92
Departing Airport: LEBL
Destination Airport: LIRF
Alternate Airport:LIRN
Online: VATSIM
Route:SADEM UM601 ALG UL5 LUNAK
Flight Level:F330
No Slew and time accel
No pause
Crash detect
Detect pilot in Cockpit between each 30 and 45 minutes
16:42 Zero fuel Weight: 164500 Lbs, Fuel Weight: 22526 Lbs
16:42 VATSIM:LEBL 281630Z 08011KT 8000 FEW018 18/15 Q1004 NOSIG
16:42 VATSIM:LIRF 281620Z 00000KT CAVOK 24/12 Q1016 NOSIG
17:00 Parking Brakes off
17:05 Take-off
17:05 Take off Weight: 185391 Lbs
17:05 Wind: 084º @ 011 Knots Heading: 065º
17:05 POS N41º 17´ 21´´ E002º 05´ 41´´
17:05 Gear Up: 184 Knots
17:05 Flaps:2 at 184 Knots
17:05 Flaps:1 at 229 Knots
17:05 Flaps:0 at 229 Knots
17:17 TOC
17:17 Fuel Weight: 17558 Lb
17:20 Wind:126º@031 Knots Heading: 103º Ground Speed: 458 Knots Altitude 32736 ft
17:35 Wind:111º@032 Knots Heading: 099º Ground Speed: 465 Knots Altitude 32857 ft
17:50 Wind:144º@008 Knots Heading: 068º Ground Speed: 498 Knots Altitude 32933 ft
17:58 TOD
17:58 Fuel Weight: 10317 Lb
18:05 Wind:113º@006 Knots Heading: 069º Ground Speed: 345 Knots Altitude 17847 ft
18:15 Flaps:1 at 209 Knots
18:15 Flaps:2 at 193 Knots
18:15 Gear Down: 192 Knots
18:16 Flaps:3 at 171 Knots
18:16 Flaps:4 at 152 Knots
18:17 Flaps:5 at 146 Knots
18:18 TouchDown:Rate -186 ft/min Speed: 129 Knots
18:18 VATSIM:LIRF 281750Z VRB02KT CAVOK 20/15 Q1015 NOSIG
18:18 Land
18:18 Wind:202º@000 Knots
18:18 Heading: 069º
18:18 Flight Duration: 01:13
18:18 Landing Weight: 173648 Lbs
18:18 POS N41º 48´ 23´´ E012º 15´ 28´´
18:26 Parking brakes on
18:26 Block to Block Duration: 01:26
18:26 Final Fuel: 8397 Lbls
18:26 Spent Fuel: 14129 Lbls
18:26 Flight Length: 366 NM
18:26 TOD Land Length: 99 NM

Exportar CSV

Powered by Drupal - Modified by Danger4k